Sea Cloud II — 9HUE6 — position and weather

sailwx.info

Track history (hours):
 
Tides and Currents Weather Stations Pressure Air Temp Water Temp Dewpoint Dewpoint Depression Visibility Wind Speed Wind Dir Waves Ship Positions

Sea Cloud II

Ship's website: http://www.seacloud.com/en/the-ships/sea-cloud-ii.html

Last reported at 2020-Mar-31 07:15 UTC. Time now 2020-Mar-31 07:57 UTC.
Position N 18°01' W 063°07'.

Length 117 m; draft 6 m.

Type: Passenger vessel. MMSI: 248953000.

Date/timePositionNaut miles runAvg speedWind from/ knotsBaromVisibWave heightAir tempDewpointWater temp
2020-Mar-31 07:15N 18°01' W 063°07'0 0.0
2020-Mar-31 06:15N 18°01' W 063°07'0 0.0
2020-Mar-31 04:48N 18°01' W 063°07'0 0.0
2020-Mar-31 04:15N 18°01' W 063°07'0 0.0
2020-Mar-31 00:35N 18°01' W 063°07'0 0.0
2020-Mar-30 23:20N 18°01' W 063°07'0 0.0
2020-Mar-30 21:08N 18°01' W 063°07'0 0.1
2020-Mar-30 20:59N 18°01' W 063°07'0 0.0
2020-Mar-30 17:29N 18°01' W 063°07'0 0.0
2020-Mar-30 16:17N 18°01' W 063°07'0 0.0
2020-Mar-30 14:29N 18°01' W 063°07'0 0.0
2020-Mar-30 13:47N 18°01' W 063°07'0 0.0
2020-Mar-30 11:50N 18°01' W 063°07'0 0.0
2020-Mar-30 07:38N 18°01' W 063°07'0 0.0
2020-Mar-30 05:44N 18°01' W 063°07'0 0.0
2020-Mar-30 05:14N 18°01' W 063°07'0 0.0
2020-Mar-30 01:20N 18°01' W 063°07'0 0.0
2020-Mar-29 22:02N 18°01' W 063°07'0 0.0
2020-Mar-29 21:05N 18°01' W 063°07'0 0.0
2020-Mar-29 20:08N 18°01' W 063°07'0 0.0
2020-Mar-29 19:05N 18°01' W 063°07'0 0.0
2020-Mar-29 18:38N 18°01' W 063°07'0 0.0
2020-Mar-29 17:56N 18°01' W 063°07'0 0.0
2020-Mar-29 17:08N 18°01' W 063°07'0 0.0
2020-Mar-29 16:26N 18°01' W 063°07'0 0.0
2020-Mar-29 14:29N 18°01' W 063°07'0 0.0
2020-Mar-29 13:29N 18°01' W 063°07'0 0.0
2020-Mar-29 12:59N 18°01' W 063°07'0 0.0
2020-Mar-29 12:26N 18°01' W 063°07'0 0.0
2020-Mar-29 11:17N 18°01' W 063°07'0 0.0
2020-Mar-29 03:26N 18°01' W 063°07'0 0.0
2020-Mar-29 02:26N 18°01' W 063°07'0 0.0
2020-Mar-28 23:59N 18°01' W 063°07'0 0.0
2020-Mar-28 23:26N 18°01' W 063°07'0 0.0
2020-Mar-28 20:56N 18°01' W 063°07'0 0.0
2020-Mar-28 19:05N 18°01' W 063°07'0 0.0
2020-Mar-28 11:38N 18°01' W 063°07'0 0.0
2020-Mar-28 02:49N 18°01' W 063°07'0 0.0
2020-Mar-28 02:20N 18°01' W 063°07'0 0.0
2020-Mar-28 01:49N 18°01' W 063°07'0 0.0
2020-Mar-28 00:52N 18°01' W 063°07'0 0.0
2020-Mar-27 16:26N 18°01' W 063°07'0 0.0
2020-Mar-27 15:55N 18°01' W 063°07'0 0.0
2020-Mar-27 14:46N 18°01' W 063°07'0 0.0
2020-Mar-27 13:16N 18°01' W 063°07'0 0.0
2020-Mar-27 11:53N 18°01' W 063°07'0 0.0
2020-Mar-27 03:11N 18°01' W 063°07'0 0.0
2020-Mar-26 21:17N 18°01' W 063°07'0 0.0
2020-Mar-26 20:50N 18°01' W 063°07'4 1.2
2020-Mar-26 17:50N 18°01' W 063°03'0 0.0
2020-Mar-26 17:18N 18°01' W 063°03'0 0.0
2020-Mar-26 14:54N 18°01' W 063°03'0 0.0
2020-Mar-26 13:12N 18°01' W 063°03'0 0.0
2020-Mar-26 10:51N 18°01' W 063°03'4 4.1
2020-Mar-26 09:58N 17°58' W 063°05'10 3.6
2020-Mar-26 07:05N 17°48' W 063°06'2 4.3
2020-Mar-26 06:36N 17°45' W 063°06'1 3.8
2020-Mar-26 06:27N 17°45' W 063°06'5 4.4
2020-Mar-26 05:21N 17°40' W 063°07'5 5.9
2020-Mar-26 04:29N 17°35' W 063°07'4 4.0
2020-Mar-26 03:28N 17°31' W 063°07'  
2020-Mar-22 11:48N 17°17' W 062°44'  
Track history (hours):
 
Tides and Currents Weather Stations Pressure Air Temp Water Temp Dewpoint Dewpoint Depression Visibility Wind Speed Wind Dir Waves Ship Positions

Sea Cloud II

Ship's website: http://www.seacloud.com/en/the-ships/sea-cloud-ii.html

Last reported at 2020-Mar-31 07:15 UTC. Time now 2020-Mar-31 07:57 UTC.
Position N 18°01' W 063°07'.

Length 117 m; draft 6 m.

Type: Passenger vessel. MMSI: 248953000.

Date/timePositionNaut miles runAvg speedWind from/ knotsBaromVisibWave heightAir tempDewpointWater temp
2020-Mar-31 07:15N 18°01' W 063°07'0 0.0
2020-Mar-31 06:15N 18°01' W 063°07'0 0.0
2020-Mar-31 04:48N 18°01' W 063°07'0 0.0
2020-Mar-31 04:15N 18°01' W 063°07'0 0.0
2020-Mar-31 00:35N 18°01' W 063°07'0 0.0
2020-Mar-30 23:20N 18°01' W 063°07'0 0.0
2020-Mar-30 21:08N 18°01' W 063°07'0 0.1
2020-Mar-30 20:59N 18°01' W 063°07'0 0.0
2020-Mar-30 17:29N 18°01' W 063°07'0 0.0
2020-Mar-30 16:17N 18°01' W 063°07'0 0.0
2020-Mar-30 14:29N 18°01' W 063°07'0 0.0
2020-Mar-30 13:47N 18°01' W 063°07'0 0.0
2020-Mar-30 11:50N 18°01' W 063°07'0 0.0
2020-Mar-30 07:38N 18°01' W 063°07'0 0.0
2020-Mar-30 05:44N 18°01' W 063°07'0 0.0
2020-Mar-30 05:14N 18°01' W 063°07'0 0.0
2020-Mar-30 01:20N 18°01' W 063°07'0 0.0
2020-Mar-29 22:02N 18°01' W 063°07'0 0.0
2020-Mar-29 21:05N 18°01' W 063°07'0 0.0
2020-Mar-29 20:08N 18°01' W 063°07'0 0.0
2020-Mar-29 19:05N 18°01' W 063°07'0 0.0
2020-Mar-29 18:38N 18°01' W 063°07'0 0.0
2020-Mar-29 17:56N 18°01' W 063°07'0 0.0
2020-Mar-29 17:08N 18°01' W 063°07'0 0.0
2020-Mar-29 16:26N 18°01' W 063°07'0 0.0
2020-Mar-29 14:29N 18°01' W 063°07'0 0.0
2020-Mar-29 13:29N 18°01' W 063°07'0 0.0
2020-Mar-29 12:59N 18°01' W 063°07'0 0.0
2020-Mar-29 12:26N 18°01' W 063°07'0 0.0
2020-Mar-29 11:17N 18°01' W 063°07'0 0.0
2020-Mar-29 03:26N 18°01' W 063°07'0 0.0
2020-Mar-29 02:26N 18°01' W 063°07'0 0.0
2020-Mar-28 23:59N 18°01' W 063°07'0 0.0
2020-Mar-28 23:26N 18°01' W 063°07'0 0.0
2020-Mar-28 20:56N 18°01' W 063°07'0 0.0
2020-Mar-28 19:05N 18°01' W 063°07'0 0.0
2020-Mar-28 11:38N 18°01' W 063°07'0 0.0
2020-Mar-28 02:49N 18°01' W 063°07'0 0.0
2020-Mar-28 02:20N 18°01' W 063°07'0 0.0
2020-Mar-28 01:49N 18°01' W 063°07'0 0.0
2020-Mar-28 00:52N 18°01' W 063°07'0 0.0
2020-Mar-27 16:26N 18°01' W 063°07'0 0.0
2020-Mar-27 15:55N 18°01' W 063°07'0 0.0
2020-Mar-27 14:46N 18°01' W 063°07'0 0.0
2020-Mar-27 13:16N 18°01' W 063°07'0 0.0
2020-Mar-27 11:53N 18°01' W 063°07'0 0.0
2020-Mar-27 03:11N 18°01' W 063°07'0 0.0
2020-Mar-26 21:17N 18°01' W 063°07'0 0.0
2020-Mar-26 20:50N 18°01' W 063°07'4 1.2
2020-Mar-26 17:50N 18°01' W 063°03'0 0.0
2020-Mar-26 17:18N 18°01' W 063°03'0 0.0
2020-Mar-26 14:54N 18°01' W 063°03'0 0.0
2020-Mar-26 13:12N 18°01' W 063°03'0 0.0
2020-Mar-26 10:51N 18°01' W 063°03'4 4.1
2020-Mar-26 09:58N 17°58' W 063°05'10 3.6
2020-Mar-26 07:05N 17°48' W 063°06'2 4.3
2020-Mar-26 06:36N 17°45' W 063°06'1 3.8
2020-Mar-26 06:27N 17°45' W 063°06'5 4.4
2020-Mar-26 05:21N 17°40' W 063°07'5 5.9
2020-Mar-26 04:29N 17°35' W 063°07'4 4.0
2020-Mar-26 03:28N 17°31' W 063°07'  
2020-Mar-22 11:48N 17°17' W 062°44'  

Dump ship's entire track history